Time;durP1;ratioP1;P1;durP2;ratioP2;P2;SDS_P1;SDS_P2;PMS_P1;PMS_P2;Temp;Humidity;BMP_temperature;BMP_pressure;BME280_temperature;BME280_humidity;BME280_pressure;Samples;Min_cycle;Max_cycle;Signal;HPM_P1;HPM_P2
2023/03/30 00:02:08;;;;;;;16.83;8.88;;;;;;;;;;5024410;28;20430;-54
2023/03/30 00:04:33;;;;;;;17.48;8.77;;;;;;;;;;5024232;28;20075;-51
2023/03/30 00:06:59;;;;;;;18.60;8.70;;;;;;;;;;5024012;28;20029;-53
2023/03/30 00:09:31;;;;;;;18.30;8.32;;;;;;;;;;5023825;28;20018;-53
2023/03/30 00:12:01;;;;;;;19.90;8.75;;;;;;;;;;5023926;28;20026;-54
2023/03/30 00:14:28;;;;;;;18.08;7.97;;;;;;;;;;5020320;28;20442;-53
2023/03/30 00:16:54;;;;;;;14.88;8.10;;;;;;;;;;5021390;28;20033;-53
2023/03/30 00:19:20;;;;;;;21.13;8.00;;;;;;;;;;5020607;28;20068;-53
2023/03/30 00:21:46;;;;;;;22.90;8.15;;;;;;;;;;5020471;28;20407;-52
2023/03/30 00:24:11;;;;;;;19.40;7.43;;;;;;;;;;5020980;28;20036;-52
2023/03/30 00:26:36;;;;;;;13.63;8.27;;;;;;;;;;5020609;28;20021;-52
2023/03/30 00:29:01;;;;;;;13.50;8.23;;;;;;;;;;5020478;28;20065;-52
2023/03/30 00:31:27;;;;;;;20.10;8.10;;;;;;;;;;5020508;28;20418;-52
2023/03/30 00:33:52;;;;;;;21.83;8.20;;;;;;;;;;5020523;28;20045;-52
2023/03/30 00:36:17;;;;;;;15.48;8.25;;;;;;;;;;5020574;28;20105;-53
2023/03/30 00:38:44;;;;;;;17.27;7.88;;;;;;;;;;5023194;28;20025;-54
2023/03/30 00:41:09;;;;;;;16.40;7.70;;;;;;;;;;5024087;28;20029;-51
2023/03/30 00:43:53;;;;;;;20.42;8.95;;;;;;;;;;5024355;28;20553;-54
2023/03/30 00:46:18;;;;;;;18.90;7.82;;;;;;;;;;5026654;28;20029;-53
2023/03/30 00:48:44;;;;;;;16.67;7.80;;;;;;;;;;5027014;28;20029;-56
2023/03/30 00:51:10;;;;;;;17.35;7.65;;;;;;;;;;5026763;28;20471;-53
2023/03/30 00:53:35;;;;;;;16.90;7.53;;;;;;;;;;5026919;28;20026;-55
2023/03/30 00:56:01;;;;;;;20.02;8.15;;;;;;;;;;5026832;28;20412;-51
2023/03/30 00:58:28;;;;;;;17.20;7.65;;;;;;;;;;5027122;28;20051;-53
2023/03/30 01:00:54;;;;;;;15.32;7.75;;;;;;;;;;5025526;28;20426;-54
2023/03/30 01:03:22;;;;;;;17.45;8.13;;;;;;;;;;5026584;28;20056;-54
2023/03/30 01:05:48;;;;;;;18.02;7.63;;;;;;;;;;5027180;28;20091;-53
2023/03/30 01:08:15;;;;;;;15.70;7.05;;;;;;;;;;5026752;28;20463;-53
2023/03/30 01:10:41;;;;;;;13.88;7.50;;;;;;;;;;5026787;28;20049;-52
2023/03/30 01:13:06;;;;;;;19.88;7.90;;;;;;;;;;5026362;28;20469;-54
2023/03/30 01:15:33;;;;;;;14.02;7.45;;;;;;;;;;5026663;28;20033;-52
2023/03/30 01:18:07;;;;;;;19.02;7.93;;;;;;;;;;5024098;28;20029;-51
2023/03/30 01:20:37;;;;;;;13.98;6.85;;;;;;;;;;5025895;28;20028;-53
2023/03/30 01:23:05;;;;;;;19.27;8.52;;;;;;;;;;5026177;28;20025;-51
2023/03/30 01:25:32;;;;;;;14.40;7.57;;;;;;;;;;5026719;28;20090;-53
2023/03/30 01:28:16;;;;;;;13.55;7.32;;;;;;;;;;5026490;28;20075;-54
2023/03/30 01:31:00;;;;;;;21.98;8.30;;;;;;;;;;5026017;28;20025;-54
2023/03/30 01:33:28;;;;;;;17.85;8.57;;;;;;;;;;5025573;28;20253;-51
2023/03/30 01:36:02;;;;;;;17.23;7.50;;;;;;;;;;5026794;28;20052;-56
2023/03/30 01:38:31;;;;;;;26.30;9.35;;;;;;;;;;5026230;28;20452;-56
2023/03/30 01:41:11;;;;;;;29.70;11.60;;;;;;;;;;5026150;28;20026;-56
2023/03/30 01:43:50;;;;;;;35.03;10.63;;;;;;;;;;5026277;28;20071;-53
2023/03/30 01:46:39;;;;;;;30.33;11.13;;;;;;;;;;5026058;28;20030;-55
2023/03/30 01:49:07;;;;;;;24.33;10.50;;;;;;;;;;5002668;28;20037;-55
2023/03/30 01:51:34;;;;;;;20.70;9.75;;;;;;;;;;5002750;28;20038;-55
2023/03/30 01:54:00;;;;;;;24.38;9.88;;;;;;;;;;5003413;28;20038;-56
2023/03/30 01:56:40;;;;;;;25.27;10.77;;;;;;;;;;5003339;28;20104;-53
2023/03/30 01:59:13;;;;;;;23.23;9.70;;;;;;;;;;5003019;28;20062;-55
2023/03/30 02:01:40;;;;;;;19.40;9.10;;;;;;;;;;5003633;28;20087;-55
2023/03/30 02:04:08;;;;;;;27.02;10.70;;;;;;;;;;5003094;28;20384;-56
2023/03/30 02:06:40;;;;;;;22.13;8.75;;;;;;;;;;5003121;28;20072;-54
2023/03/30 02:09:07;;;;;;;27.10;10.13;;;;;;;;;;5002923;28;20065;-55
2023/03/30 02:11:32;;;;;;;19.23;9.52;;;;;;;;;;4986362;28;20048;-54
2023/03/30 02:13:58;;;;;;;26.98;10.30;;;;;;;;;;5002772;28;20535;-52
2023/03/30 02:16:30;;;;;;;31.65;12.30;;;;;;;;;;5003025;28;20057;-52
2023/03/30 02:18:56;;;;;;;27.98;12.10;;;;;;;;;;5002739;28;20026;-56
2023/03/30 02:21:21;;;;;;;38.03;13.10;;;;;;;;;;5001596;28;20037;-51
2023/03/30 02:23:47;;;;;;;34.50;13.30;;;;;;;;;;5002787;28;20022;-53
2023/03/30 02:26:12;;;;;;;32.70;11.20;;;;;;;;;;5014871;28;20038;-55
2023/03/30 02:28:38;;;;;;;26.20;11.30;;;;;;;;;;5025177;28;20026;-56
2023/03/30 02:31:08;;;;;;;31.20;11.30;;;;;;;;;;5025009;28;20025;-54
2023/03/30 02:33:43;;;;;;;23.90;10.05;;;;;;;;;;5024639;28;20430;-53
2023/03/30 02:36:26;;;;;;;21.95;9.77;;;;;;;;;;5024686;28;20734;-55
2023/03/30 02:39:03;;;;;;;19.08;7.80;;;;;;;;;;5025306;28;20036;-56
2023/03/30 02:41:35;;;;;;;24.58;8.50;;;;;;;;;;5024808;28;20017;-57
2023/03/30 02:44:09;;;;;;;25.00;9.25;;;;;;;;;;5024789;28;20025;-54
2023/03/30 02:46:37;;;;;;;17.25;8.15;;;;;;;;;;5025182;28;20075;-56
2023/03/30 02:49:06;;;;;;;18.35;9.15;;;;;;;;;;5024552;28;20082;-54
2023/03/30 02:51:40;;;;;;;16.60;9.20;;;;;;;;;;5023507;28;20530;-56
2023/03/30 02:54:24;;;;;;;16.75;8.00;;;;;;;;;;5024775;28;20021;-56
2023/03/30 02:56:55;;;;;;;18.90;9.52;;;;;;;;;;5024658;28;20159;-56
2023/03/30 02:59:23;;;;;;;17.13;8.50;;;;;;;;;;5024837;28;20462;-56
2023/03/30 03:01:59;;;;;;;21.70;9.20;;;;;;;;;;5024124;28;20026;-56
2023/03/30 03:04:27;;;;;;;17.55;8.07;;;;;;;;;;5024552;28;20022;-54
2023/03/30 03:06:53;;;;;;;20.58;7.63;;;;;;;;;;5024651;28;20510;-55
2023/03/30 03:09:19;;;;;;;16.08;7.43;;;;;;;;;;5024194;28;20029;-55
2023/03/30 03:11:44;;;;;;;14.57;7.63;;;;;;;;;;5024767;28;20387;-56
2023/03/30 03:14:10;;;;;;;14.40;5.60;;;;;;;;;;5024309;28;20021;-56
2023/03/30 03:16:36;;;;;;;17.02;7.82;;;;;;;;;;5024532;28;20036;-54
2023/03/30 03:19:02;;;;;;;20.63;6.72;;;;;;;;;;5024461;28;20022;-54
2023/03/30 03:21:27;;;;;;;13.27;6.40;;;;;;;;;;5023613;28;20056;-55
2023/03/30 03:23:52;;;;;;;17.40;7.13;;;;;;;;;;5024056;28;20032;-55
2023/03/30 03:26:18;;;;;;;16.20;7.07;;;;;;;;;;5021659;28;20574;-55
2023/03/30 03:28:44;;;;;;;15.43;6.47;;;;;;;;;;5024579;28;20322;-54
2023/03/30 03:31:11;;;;;;;15.93;6.85;;;;;;;;;;5024434;28;20041;-54
2023/03/30 03:33:36;;;;;;;13.45;6.00;;;;;;;;;;5023879;28;20025;-53
2023/03/30 03:36:02;;;;;;;14.63;7.05;;;;;;;;;;5024038;28;20084;-49
2023/03/30 03:38:28;;;;;;;14.90;6.50;;;;;;;;;;5024295;28;20028;-55
2023/03/30 03:40:54;;;;;;;12.82;6.57;;;;;;;;;;5023944;28;20450;-54
2023/03/30 03:43:20;;;;;;;15.43;6.50;;;;;;;;;;5023894;28;20057;-56
2023/03/30 03:45:46;;;;;;;18.95;7.63;;;;;;;;;;5024254;28;20064;-56
2023/03/30 03:48:12;;;;;;;18.65;6.80;;;;;;;;;;5024663;28;20105;-56
2023/03/30 03:50:38;;;;;;;15.93;7.90;;;;;;;;;;5024155;28;20109;-53
2023/03/30 03:53:03;;;;;;;16.73;7.90;;;;;;;;;;5024040;28;20017;-54
2023/03/30 03:55:29;;;;;;;16.83;8.48;;;;;;;;;;5023991;28;20485;-53
2023/03/30 03:57:55;;;;;;;14.77;7.10;;;;;;;;;;5024225;28;20459;-56
2023/03/30 04:00:22;;;;;;;16.92;7.45;;;;;;;;;;5024315;28;20084;-56
2023/03/30 04:02:47;;;;;;;17.63;6.75;;;;;;;;;;5024190;28;20112;-55
2023/03/30 04:05:12;;;;;;;19.92;8.35;;;;;;;;;;5024017;28;20550;-53
2023/03/30 04:07:37;;;;;;;15.43;6.85;;;;;;;;;;5024425;28;20429;-56
2023/03/30 04:10:03;;;;;;;15.80;7.07;;;;;;;;;;5024117;28;20125;-52
2023/03/30 04:12:29;;;;;;;18.90;8.50;;;;;;;;;;5021991;28;20033;-54
2023/03/30 04:14:55;;;;;;;23.77;7.70;;;;;;;;;;5027771;28;20029;-52
2023/03/30 04:17:23;;;;;;;19.92;7.60;;;;;;;;;;5027632;28;20149;-56
2023/03/30 04:19:53;;;;;;;19.73;7.30;;;;;;;;;;5027583;28;20422;-53
2023/03/30 04:22:19;;;;;;;18.90;8.27;;;;;;;;;;5027895;28;20171;-56
2023/03/30 04:24:44;;;;;;;20.98;7.40;;;;;;;;;;5026119;28;20064;-53
2023/03/30 04:27:15;;;;;;;20.27;8.25;;;;;;;;;;5027677;28;20017;-52
2023/03/30 04:29:43;;;;;;;18.80;8.30;;;;;;;;;;5027726;28;20032;-54
2023/03/30 04:32:09;;;;;;;20.33;8.63;;;;;;;;;;5027988;28;20080;-55
2023/03/30 04:34:34;;;;;;;24.38;8.63;;;;;;;;;;5027562;28;20482;-54
2023/03/30 04:37:00;;;;;;;22.33;8.88;;;;;;;;;;5027610;28;20017;-55
2023/03/30 04:39:28;;;;;;;19.55;8.25;;;;;;;;;;5027577;28;20017;-51
2023/03/30 04:41:54;;;;;;;21.48;8.50;;;;;;;;;;5027457;28;20076;-54
2023/03/30 04:44:20;;;;;;;16.52;8.20;;;;;;;;;;5027316;28;20022;-55
2023/03/30 04:46:46;;;;;;;20.35;9.57;;;;;;;;;;5027812;28;20037;-54
2023/03/30 04:49:11;;;;;;;18.65;8.63;;;;;;;;;;5027009;28;20026;-53
2023/03/30 04:51:38;;;;;;;23.33;8.43;;;;;;;;;;5026356;28;20049;-52
2023/03/30 04:54:03;;;;;;;19.20;9.20;;;;;;;;;;5027883;28;20056;-52
2023/03/30 04:56:29;;;;;;;24.45;9.38;;;;;;;;;;5026898;28;20045;-53
2023/03/30 04:58:54;;;;;;;17.90;8.80;;;;;;;;;;5026790;28;20021;-53
2023/03/30 05:01:20;;;;;;;17.83;8.88;;;;;;;;;;5026409;28;20517;-54
2023/03/30 05:03:45;;;;;;;18.92;8.45;;;;;;;;;;5026952;28;20459;-54
2023/03/30 05:06:11;;;;;;;25.15;10.80;;;;;;;;;;5026485;28;20030;-56
2023/03/30 05:08:37;;;;;;;21.17;9.15;;;;;;;;;;5026611;28;20467;-54
2023/03/30 05:11:03;;;;;;;19.45;9.05;;;;;;;;;;5026699;28;20028;-50
2023/03/30 05:13:29;;;;;;;22.35;9.65;;;;;;;;;;5026715;28;20095;-53
2023/03/30 05:15:55;;;;;;;22.08;9.90;;;;;;;;;;5026477;28;20033;-53
2023/03/30 05:18:20;;;;;;;24.77;9.82;;;;;;;;;;5026415;28;20403;-52
2023/03/30 05:20:46;;;;;;;23.35;8.98;;;;;;;;;;5025881;28;20368;-49
2023/03/30 05:23:11;;;;;;;19.20;9.20;;;;;;;;;;5026347;28;20263;-53
2023/03/30 05:25:36;;;;;;;20.08;9.32;;;;;;;;;;5025295;28;20025;-52
2023/03/30 05:28:02;;;;;;;19.45;9.20;;;;;;;;;;5026102;28;20028;-52
2023/03/30 05:30:27;;;;;;;20.33;8.45;;;;;;;;;;5026616;28;20604;-56
2023/03/30 05:32:53;;;;;;;19.60;9.63;;;;;;;;;;5026152;28;20083;-56
2023/03/30 05:35:18;;;;;;;30.73;9.80;;;;;;;;;;5026118;28;20517;-54
2023/03/30 05:37:47;;;;;;;19.77;8.77;;;;;;;;;;4990982;28;20041;-55
2023/03/30 05:40:12;;;;;;;20.27;8.18;;;;;;;;;;5026847;28;20029;-55
2023/03/30 05:42:37;;;;;;;21.35;8.85;;;;;;;;;;5026472;28;20029;-53
2023/03/30 05:45:03;;;;;;;18.70;8.90;;;;;;;;;;5026249;28;20021;-55
2023/03/30 05:47:28;;;;;;;17.65;8.00;;;;;;;;;;5026479;28;20064;-56
2023/03/30 05:49:53;;;;;;;19.48;8.55;;;;;;;;;;5026019;28;20018;-57
2023/03/30 05:52:20;;;;;;;17.45;7.43;;;;;;;;;;5026341;28;20395;-53
2023/03/30 05:54:45;;;;;;;19.70;8.68;;;;;;;;;;5025871;28;20060;-52
2023/03/30 05:57:11;;;;;;;23.85;8.25;;;;;;;;;;5025913;28;20029;-56
2023/03/30 05:59:37;;;;;;;20.92;8.38;;;;;;;;;;5021312;28;20024;-57
2023/03/30 06:02:02;;;;;;;17.80;7.80;;;;;;;;;;5024107;28;20470;-54
2023/03/30 06:04:27;;;;;;;19.80;9.48;;;;;;;;;;5024310;28;20017;-56
2023/03/30 06:06:52;;;;;;;16.02;8.35;;;;;;;;;;5024868;28;20049;-56
2023/03/30 06:09:18;;;;;;;20.10;8.85;;;;;;;;;;5025052;28;20398;-52
2023/03/30 06:11:43;;;;;;;18.42;8.68;;;;;;;;;;5024837;28;20018;-55
2023/03/30 06:14:09;;;;;;;19.63;8.85;;;;;;;;;;5017941;28;20014;-56
2023/03/30 06:16:35;;;;;;;15.93;8.38;;;;;;;;;;5021127;28;20273;-55
2023/03/30 06:19:01;;;;;;;17.75;8.70;;;;;;;;;;5025946;28;20029;-53
2023/03/30 06:21:26;;;;;;;22.38;9.23;;;;;;;;;;5026829;28;20595;-55
2023/03/30 06:23:52;;;;;;;20.77;8.68;;;;;;;;;;5021974;28;20117;-54
2023/03/30 06:26:17;;;;;;;15.38;8.15;;;;;;;;;;5016846;28;20668;-56
2023/03/30 06:28:43;;;;;;;17.92;9.02;;;;;;;;;;5023690;28;20109;-55
2023/03/30 06:31:08;;;;;;;16.83;8.18;;;;;;;;;;5018759;28;20095;-54
2023/03/30 06:33:34;;;;;;;18.45;8.45;;;;;;;;;;5036444;28;20045;-59
2023/03/30 06:36:00;;;;;;;22.00;8.93;;;;;;;;;;5019499;28;20508;-59
2023/03/30 06:38:25;;;;;;;20.35;9.02;;;;;;;;;;5021950;28;20033;-53
2023/03/30 06:40:50;;;;;;;22.02;8.65;;;;;;;;;;5019069;28;20532;-61
2023/03/30 06:43:17;;;;;;;27.10;7.65;;;;;;;;;;5022739;28;20018;-57
2023/03/30 06:45:48;;;;;;;16.73;7.47;;;;;;;;;;5019064;28;20025;-57
2023/03/30 06:48:13;;;;;;;24.17;8.23;;;;;;;;;;5038589;28;20060;-58
2023/03/30 06:50:39;;;;;;;17.92;8.48;;;;;;;;;;5015733;28;20487;-59
2023/03/30 06:53:04;;;;;;;13.63;8.05;;;;;;;;;;5016055;28;20026;-57
2023/03/30 06:55:30;;;;;;;19.88;7.97;;;;;;;;;;5018814;28;20037;-57
2023/03/30 06:57:55;;;;;;;17.42;7.80;;;;;;;;;;5020741;28;20108;-55
2023/03/30 07:00:21;;;;;;;13.98;8.70;;;;;;;;;;5021806;28;20025;-60
2023/03/30 07:02:46;;;;;;;14.88;7.03;;;;;;;;;;5019023;28;20055;-61
2023/03/30 07:05:14;;;;;;;14.95;6.97;;;;;;;;;;5003973;28;20815;-58
2023/03/30 07:07:39;;;;;;;15.43;7.53;;;;;;;;;;5017418;28;20399;-58
2023/03/30 07:10:09;;;;;;;18.00;7.75;;;;;;;;;;5021592;28;20042;-60
2023/03/30 07:12:34;;;;;;;14.27;6.70;;;;;;;;;;5022371;28;20029;-61
2023/03/30 07:15:00;;;;;;;14.70;7.95;;;;;;;;;;5023131;28;20184;-57
2023/03/30 07:17:26;;;;;;;14.75;7.43;;;;;;;;;;5023110;28;20087;-60
2023/03/30 07:19:51;;;;;;;20.90;8.38;;;;;;;;;;5017689;28;20032;-61
2023/03/30 07:22:17;;;;;;;19.60;7.03;;;;;;;;;;5018129;28;20033;-55
2023/03/30 07:24:43;;;;;;;16.83;7.88;;;;;;;;;;5022212;28;20017;-58
2023/03/30 07:27:09;;;;;;;17.20;7.60;;;;;;;;;;5021267;28;20013;-58
2023/03/30 07:29:35;;;;;;;17.98;6.63;;;;;;;;;;5022301;28;20477;-61
2023/03/30 07:32:01;;;;;;;22.85;8.00;;;;;;;;;;5011024;28;20750;-60
2023/03/30 07:34:27;;;;;;;16.50;7.88;;;;;;;;;;5031229;28;20041;-55
2023/03/30 07:36:52;;;;;;;14.93;8.63;;;;;;;;;;5035390;28;20434;-60
2023/03/30 07:39:17;;;;;;;13.68;6.80;;;;;;;;;;5028533;28;20029;-63
2023/03/30 07:41:43;;;;;;;17.58;7.82;;;;;;;;;;5023615;28;20032;-63
2023/03/30 07:44:08;;;;;;;12.10;6.80;;;;;;;;;;5024903;28;20071;-59
2023/03/30 07:46:33;;;;;;;19.02;10.70;;;;;;;;;;5025760;28;20471;-60
2023/03/30 07:48:59;;;;;;;21.27;8.07;;;;;;;;;;5013588;28;20051;-57
2023/03/30 07:51:25;;;;;;;17.98;8.23;;;;;;;;;;5017846;28;20021;-61
2023/03/30 07:53:50;;;;;;;22.33;8.57;;;;;;;;;;5009568;28;20189;-56
2023/03/30 07:56:15;;;;;;;17.33;6.82;;;;;;;;;;5002898;28;20514;-58
2023/03/30 07:58:41;;;;;;;15.05;7.25;;;;;;;;;;5011709;28;20072;-60
2023/03/30 08:01:07;;;;;;;17.13;8.10;;;;;;;;;;5016224;28;20486;-59
2023/03/30 08:03:32;;;;;;;14.07;6.50;;;;;;;;;;5019298;28;20078;-60
2023/03/30 08:05:59;;;;;;;22.25;7.25;;;;;;;;;;5026364;28;20025;-61
2023/03/30 08:08:25;;;;;;;18.92;7.25;;;;;;;;;;5023317;28;20025;-61
2023/03/30 08:10:51;;;;;;;24.75;7.70;;;;;;;;;;5023655;28;20021;-61
2023/03/30 08:13:16;;;;;;;16.48;7.88;;;;;;;;;;5022778;28;20098;-60
2023/03/30 08:15:41;;;;;;;15.90;7.40;;;;;;;;;;5013055;28;20030;-59
2023/03/30 08:18:07;;;;;;;13.38;7.43;;;;;;;;;;5020287;28;20045;-59
2023/03/30 08:20:35;;;;;;;14.82;6.90;;;;;;;;;;5011593;28;20551;-62
2023/03/30 08:23:01;;;;;;;17.15;7.65;;;;;;;;;;5011524;28;20696;-62
2023/03/30 08:25:27;;;;;;;21.33;8.43;;;;;;;;;;5040213;28;20045;-63
2023/03/30 08:27:52;;;;;;;12.15;6.25;;;;;;;;;;5021802;28;20025;-61
2023/03/30 08:30:18;;;;;;;16.38;7.30;;;;;;;;;;5034979;28;20044;-64
2023/03/30 08:32:43;;;;;;;12.20;6.80;;;;;;;;;;5020007;28;20541;-62
2023/03/30 08:35:08;;;;;;;14.00;6.95;;;;;;;;;;5020748;28;20065;-61
2023/03/30 08:37:34;;;;;;;12.75;7.03;;;;;;;;;;5019432;28;20060;-61
2023/03/30 08:39:59;;;;;;;14.35;6.90;;;;;;;;;;5008473;28;20464;-62
2023/03/30 08:42:39;;;;;;;25.05;8.05;;;;;;;;;;5033677;28;20025;-60
2023/03/30 08:45:04;;;;;;;;;;;;;;;;;;5013772;28;20018;-61
2023/03/30 08:47:35;;;;;;;12.63;6.20;;;;;;;;;;5021952;28;19980;-62
2023/03/30 08:50:07;;;;;;;17.10;7.30;;;;;;;;;;5023378;28;20045;-61
2023/03/30 08:52:33;;;;;;;18.00;8.07;;;;;;;;;;5030781;28;20041;-60
2023/03/30 08:54:59;;;;;;;16.65;6.88;;;;;;;;;;5022376;28;20025;-62
2023/03/30 08:57:30;;;;;;;18.02;6.15;;;;;;;;;;5032297;28;20533;-60
2023/03/30 09:00:07;;;;;;;12.80;6.05;;;;;;;;;;5017093;28;20437;-61
2023/03/30 09:02:38;;;;;;;25.30;8.07;;;;;;;;;;5024399;28;20022;-63
2023/03/30 09:05:03;;;;;;;16.83;5.93;;;;;;;;;;5021105;28;20136;-63
2023/03/30 09:07:31;;;;;;;16.08;6.15;;;;;;;;;;5027197;28;20102;-61
2023/03/30 09:09:58;;;;;;;12.70;5.72;;;;;;;;;;5027054;28;20021;-62
2023/03/30 09:12:30;;;;;;;13.43;6.13;;;;;;;;;;5022427;28;20735;-62
2023/03/30 09:15:07;;;;;;;14.45;6.15;;;;;;;;;;5017592;28;20060;-58
2023/03/30 09:17:37;;;;;;;12.30;5.63;;;;;;;;;;5027407;28;20112;-58
2023/03/30 09:20:23;;;;;;;13.18;6.07;;;;;;;;;;5024271;28;20017;-59
2023/03/30 09:22:49;;;;;;;12.85;6.38;;;;;;;;;;5024721;28;20041;-62
2023/03/30 09:25:17;;;;;;;13.05;5.93;;;;;;;;;;5025729;28;20022;-59
2023/03/30 09:27:42;;;;;;;18.88;6.38;;;;;;;;;;5025574;28;20370;-58
2023/03/30 09:30:15;;;;;;;14.13;5.95;;;;;;;;;;5026432;28;20056;-60
2023/03/30 09:32:42;;;;;;;15.05;6.00;;;;;;;;;;5025585;28;20140;-60
2023/03/30 09:35:10;;;;;;;11.68;6.25;;;;;;;;;;5025849;28;20048;-61
2023/03/30 09:37:36;;;;;;;10.52;5.85;;;;;;;;;;5026664;28;20020;-61
2023/03/30 09:40:16;;;;;;;16.60;6.22;;;;;;;;;;5026210;28;20029;-62
2023/03/30 09:42:46;;;;;;;21.80;7.95;;;;;;;;;;5028136;28;20037;-60
2023/03/30 09:45:20;;;;;;;21.65;10.57;;;;;;;;;;5040012;28;20033;-60
2023/03/30 09:47:45;;;;;;;17.65;6.88;;;;;;;;;;5026102;28;20076;-60
2023/03/30 09:50:15;;;;;;;12.90;5.78;;;;;;;;;;5024511;28;20029;-61
2023/03/30 09:52:52;;;;;;;10.02;5.70;;;;;;;;;;5025881;28;20108;-62
2023/03/30 09:55:20;;;;;;;14.65;7.93;;;;;;;;;;5016452;28;20030;-61
2023/03/30 09:57:46;;;;;;;17.33;6.63;;;;;;;;;;5022457;28;20025;-61
2023/03/30 10:00:22;;;;;;;12.88;6.85;;;;;;;;;;5024342;28;20037;-61
2023/03/30 10:02:58;;;;;;;12.90;5.88;;;;;;;;;;5023730;28;20033;-59
2023/03/30 10:05:24;;;;;;;19.77;8.05;;;;;;;;;;5022531;28;20112;-62
2023/03/30 10:07:53;;;;;;;19.52;7.85;;;;;;;;;;5022364;28;20431;-61
2023/03/30 10:10:18;;;;;;;;;;;;;;;;;;5023579;28;20029;-63
2023/03/30 10:12:44;;;;;;;17.63;5.70;;;;;;;;;;5025561;28;19921;-61
2023/03/30 10:15:14;;;;;;;13.82;6.45;;;;;;;;;;5025338;28;20083;-63
2023/03/30 10:17:39;;;;;;;12.68;6.60;;;;;;;;;;5020093;28;20022;-64
2023/03/30 10:20:20;;;;;;;13.52;6.45;;;;;;;;;;5023628;28;20063;-61
2023/03/30 10:22:52;;;;;;;14.27;7.05;;;;;;;;;;5024145;28;20617;-63
2023/03/30 10:25:20;;;;;;;13.48;6.35;;;;;;;;;;5023066;28;20036;-62
2023/03/30 10:27:48;;;;;;;13.85;6.47;;;;;;;;;;5026982;28;20017;-63
2023/03/30 10:30:17;;;;;;;13.52;5.75;;;;;;;;;;5039032;28;20017;-61
2023/03/30 10:32:44;;;;;;;11.07;5.90;;;;;;;;;;5044966;28;20043;-61
2023/03/30 10:35:09;;;;;;;14.52;5.60;;;;;;;;;;5044920;28;20056;-62
2023/03/30 10:37:37;;;;;;;10.90;4.88;;;;;;;;;;5045170;28;20078;-62
2023/03/30 10:40:10;;;;;;;25.50;6.88;;;;;;;;;;5037712;28;20025;-65
2023/03/30 10:42:35;;;;;;;12.32;5.72;;;;;;;;;;5024491;28;20119;-61
2023/03/30 10:45:03;;;;;;;15.00;7.10;;;;;;;;;;5040981;28;20518;-60
2023/03/30 10:47:35;;;;;;;16.75;6.97;;;;;;;;;;5021492;28;20448;-60
2023/03/30 10:50:08;;;;;;;12.43;5.60;;;;;;;;;;5039709;28;20587;-59
2023/03/30 10:52:40;;;;;;;14.73;6.18;;;;;;;;;;5016767;28;20038;-60
2023/03/30 10:55:21;;;;;;;13.35;6.13;;;;;;;;;;5028027;28;20029;-58
2023/03/30 10:57:53;;;;;;;14.07;5.55;;;;;;;;;;5023537;28;20116;-61
2023/03/30 11:00:18;;;;;;;10.13;5.60;;;;;;;;;;5024324;28;20024;-62
2023/03/30 11:02:56;;;;;;;12.63;6.63;;;;;;;;;;5021348;28;20030;-61
2023/03/30 11:05:28;;;;;;;16.73;6.45;;;;;;;;;;5022046;28;20067;-62
2023/03/30 11:08:19;;;;;;;13.80;5.65;;;;;;;;;;5026896;28;20024;-57
2023/03/30 11:10:46;;;;;;;10.88;5.25;;;;;;;;;;4968164;28;20044;-65
2023/03/30 11:13:22;;;;;;;12.38;6.03;;;;;;;;;;4999172;28;20045;-63
2023/03/30 11:15:57;;;;;;;14.38;5.53;;;;;;;;;;5007518;28;20055;-60
2023/03/30 11:18:22;;;;;;;8.90;5.10;;;;;;;;;;5002942;28;20057;-59
2023/03/30 11:21:02;;;;;;;12.25;5.80;;;;;;;;;;5005300;28;20053;-62
2023/03/30 11:23:41;;;;;;;12.85;6.60;;;;;;;;;;4998297;28;20538;-61
2023/03/30 11:26:07;;;;;;;17.75;6.05;;;;;;;;;;4995882;28;20033;-62
2023/03/30 11:28:42;;;;;;;12.73;6.45;;;;;;;;;;4997393;28;20033;-61
2023/03/30 11:31:30;;;;;;;8.95;5.82;;;;;;;;;;5004345;28;20032;-59
2023/03/30 11:34:16;;;;;;;9.88;5.72;;;;;;;;;;5007621;28;20042;-63
2023/03/30 11:36:50;;;;;;;11.60;6.18;;;;;;;;;;4923722;29;20086;-58
2023/03/30 11:39:17;;;;;;;10.43;6.10;;;;;;;;;;4921387;29;20427;-61
2023/03/30 11:41:56;;;;;;;12.73;5.65;;;;;;;;;;4903740;29;20714;-60
2023/03/30 11:44:22;;;;;;;11.68;6.30;;;;;;;;;;4923706;29;20034;-60
2023/03/30 11:46:50;;;;;;;15.45;7.43;;;;;;;;;;4929541;28;20039;-60
2023/03/30 11:49:35;;;;;;;11.20;4.65;;;;;;;;;;4956015;28;20026;-61
2023/03/30 11:52:04;;;;;;;15.55;7.22;;;;;;;;;;4938969;29;20078;-61
2023/03/30 11:54:32;;;;;;;11.00;5.68;;;;;;;;;;4942739;28;20043;-59
2023/03/30 11:56:58;;;;;;;27.02;6.05;;;;;;;;;;4934237;28;20027;-55
2023/03/30 11:59:23;;;;;;;11.20;5.00;;;;;;;;;;4953235;28;20210;-63
2023/03/30 12:01:51;;;;;;;11.13;4.88;;;;;;;;;;4942980;29;20300;-62
2023/03/30 12:04:25;;;;;;;7.87;4.67;;;;;;;;;;4943660;29;20122;-58
2023/03/30 12:06:54;;;;;;;10.77;4.90;;;;;;;;;;4943304;29;20540;-61
2023/03/30 12:09:22;;;;;;;10.90;5.05;;;;;;;;;;4939654;28;20039;-60
2023/03/30 12:12:02;;;;;;;12.27;4.70;;;;;;;;;;4942356;29;20186;-58
2023/03/30 12:14:35;;;;;;;7.95;4.28;;;;;;;;;;4936146;28;20043;-60
2023/03/30 12:17:05;;;;;;;12.07;4.68;;;;;;;;;;4942497;28;20564;-58
2023/03/30 12:19:47;;;;;;;11.25;5.10;;;;;;;;;;4947280;28;20037;-59
2023/03/30 12:22:21;;;;;;;7.82;3.25;;;;;;;;;;4955463;28;20043;-58
2023/03/30 12:24:49;;;;;;;9.43;4.45;;;;;;;;;;4943600;28;20031;-58
2023/03/30 12:27:14;;;;;;;6.60;4.28;;;;;;;;;;4944560;28;20059;-61
2023/03/30 12:29:48;;;;;;;8.95;4.20;;;;;;;;;;4992463;28;20103;-57
2023/03/30 12:32:27;;;;;;;10.07;4.90;;;;;;;;;;5033597;28;20034;-59
2023/03/30 12:34:52;;;;;;;11.85;5.07;;;;;;;;;;5035310;28;20123;-58
2023/03/30 12:37:34;;;;;;;6.70;4.25;;;;;;;;;;5035303;28;20656;-58
2023/03/30 12:40:13;;;;;;;12.73;4.50;;;;;;;;;;5011262;28;20029;-60
2023/03/30 12:42:45;;;;;;;12.05;3.80;;;;;;;;;;5023524;28;20041;-58
2023/03/30 12:45:30;;;;;;;11.30;3.75;;;;;;;;;;5052437;28;20107;-56
2023/03/30 12:47:55;;;;;;;10.00;3.78;;;;;;;;;;5031518;28;20017;-60
2023/03/30 12:50:39;;;;;;;7.30;3.80;;;;;;;;;;5027924;28;20026;-55
2023/03/30 12:53:05;;;;;;;9.48;3.67;;;;;;;;;;5032035;28;20837;-58
2023/03/30 12:55:51;;;;;;;22.95;5.82;;;;;;;;;;5029458;28;20318;-56
2023/03/30 12:58:41;;;;;;;7.13;3.30;;;;;;;;;;5035580;28;20045;-56
2023/03/30 13:01:15;;;;;;;10.95;4.30;;;;;;;;;;5029892;28;20589;-58
2023/03/30 13:03:48;;;;;;;12.63;3.78;;;;;;;;;;5024075;28;20026;-66
2023/03/30 13:06:40;;;;;;;11.48;3.80;;;;;;;;;;5021861;28;20025;-64
2023/03/30 13:09:11;;;;;;;18.02;4.47;;;;;;;;;;5015300;28;20030;-67
2023/03/30 13:11:42;;;;;;;9.13;3.70;;;;;;;;;;5023897;28;20096;-68
2023/03/30 13:14:20;;;;;;;12.40;4.70;;;;;;;;;;5034967;28;20060;-59
2023/03/30 13:16:51;;;;;;;10.68;3.60;;;;;;;;;;5022230;28;20025;-58
2023/03/30 13:19:20;;;;;;;9.10;4.38;;;;;;;;;;5022436;28;20075;-54
2023/03/30 13:21:53;;;;;;;107.67;35.57;;;;;;;;;;5022488;28;20025;-57
2023/03/30 13:24:30;;;;;;;256.95;186.05;;;;;;;;;;5016658;28;20084;-58
2023/03/30 13:27:14;;;;;;;196.82;178.80;;;;;;;;;;5017040;28;20072;-57
2023/03/30 13:29:41;;;;;;;7.78;3.10;;;;;;;;;;5023633;28;20088;-55
2023/03/30 13:32:12;;;;;;;7.82;3.38;;;;;;;;;;5018648;28;20041;-55
2023/03/30 13:34:56;;;;;;;12.60;3.75;;;;;;;;;;5024140;28;20045;-53
2023/03/30 13:37:22;;;;;;;7.55;3.90;;;;;;;;;;5024935;28;20036;-55
2023/03/30 13:39:58;;;;;;;8.60;3.88;;;;;;;;;;5008966;28;20050;-59
2023/03/30 13:42:26;;;;;;;11.32;4.03;;;;;;;;;;5028489;28;20080;-59
2023/03/30 13:44:59;;;;;;;11.88;3.30;;;;;;;;;;5018451;28;20041;-59
2023/03/30 13:47:27;;;;;;;8.70;3.45;;;;;;;;;;5036325;28;20028;-57
2023/03/30 13:50:12;;;;;;;9.60;3.03;;;;;;;;;;5035574;28;20033;-63
2023/03/30 13:52:39;;;;;;;7.40;2.97;;;;;;;;;;4996779;28;20112;-59
2023/03/30 13:55:13;;;;;;;5.57;2.80;;;;;;;;;;4998396;28;20387;-59
2023/03/30 13:57:40;;;;;;;7.82;3.70;;;;;;;;;;4994916;28;20065;-59
2023/03/30 14:00:08;;;;;;;7.25;3.45;;;;;;;;;;4986413;28;20120;-57
2023/03/30 14:02:37;;;;;;;11.35;4.00;;;;;;;;;;4991317;28;20065;-58
2023/03/30 14:05:02;;;;;;;;;;;;;;;;;;4990150;28;20034;-52
2023/03/30 14:07:29;;;;;;;13.13;4.18;;;;;;;;;;5002008;28;19916;-60
2023/03/30 14:10:05;;;;;;;7.28;3.70;;;;;;;;;;5002903;28;20036;-58
2023/03/30 14:12:31;;;;;;;11.43;4.13;;;;;;;;;;5002415;28;20053;-60
2023/03/30 14:14:57;;;;;;;9.02;4.07;;;;;;;;;;5003072;28;20112;-52
2023/03/30 14:17:23;;;;;;;12.82;4.68;;;;;;;;;;5002275;28;20044;-61
2023/03/30 14:19:57;;;;;;;9.55;5.30;;;;;;;;;;5002680;28;20071;-62
2023/03/30 14:22:25;;;;;;;9.65;3.85;;;;;;;;;;5002715;28;20041;-61
2023/03/30 14:24:56;;;;;;;9.43;3.95;;;;;;;;;;4995551;28;20056;-62
2023/03/30 14:27:21;;;;;;;15.70;4.18;;;;;;;;;;4999244;28;20053;-62
2023/03/30 14:29:48;;;;;;;7.95;4.00;;;;;;;;;;5011878;28;20187;-63
2023/03/30 14:32:15;;;;;;;17.40;5.43;;;;;;;;;;5027151;28;20068;-63
2023/03/30 14:34:44;;;;;;;9.85;4.20;;;;;;;;;;5037202;28;20477;-62
2023/03/30 14:37:10;;;;;;;11.27;4.47;;;;;;;;;;5045059;28;20013;-62
2023/03/30 14:39:40;;;;;;;9.10;3.70;;;;;;;;;;5045078;28;20025;-62
2023/03/30 14:42:14;;;;;;;8.93;3.60;;;;;;;;;;5045248;28;20024;-61